createdAt,value
2017-10-24T00:02:18.728Z,8.50
2017-10-24T00:04:45.565Z,8.50
2017-10-24T00:07:11.624Z,8.50
2017-10-24T00:09:38.456Z,8.40
2017-10-24T00:12:04.554Z,8.40
2017-10-24T00:14:30.643Z,8.40
2017-10-24T00:16:56.736Z,8.40
2017-10-24T00:19:22.845Z,8.40
2017-10-24T00:21:48.921Z,8.40
2017-10-24T00:24:14.996Z,8.40
2017-10-24T00:26:41.093Z,8.40
2017-10-24T00:29:07.170Z,8.40
2017-10-24T00:31:34.034Z,8.40
2017-10-24T00:34:00.893Z,8.40
2017-10-24T00:36:27.709Z,8.40
2017-10-24T00:38:53.803Z,8.30
2017-10-24T00:41:19.886Z,8.40
2017-10-24T00:43:45.967Z,8.30
2017-10-24T00:46:12.771Z,8.30
2017-10-24T00:48:38.895Z,8.30
2017-10-24T00:51:04.965Z,8.30
2017-10-24T00:53:31.048Z,8.40
2017-10-24T00:55:57.151Z,8.40
2017-10-24T00:58:23.956Z,8.50
2017-10-24T01:00:50.016Z,8.50
2017-10-24T01:03:16.137Z,8.60
2017-10-24T01:05:42.208Z,8.60
2017-10-24T01:08:08.297Z,8.60
2017-10-24T01:10:34.422Z,8.60
2017-10-24T01:13:00.516Z,8.60
2017-10-24T01:15:26.579Z,8.60
2017-10-24T01:17:53.421Z,8.50
2017-10-24T01:20:20.223Z,8.50
2017-10-24T01:22:46.299Z,8.40
2017-10-24T01:25:12.385Z,8.40
2017-10-24T01:27:38.443Z,8.40
2017-10-24T01:30:04.600Z,8.30
2017-10-24T01:32:30.702Z,8.20
2017-10-24T01:34:56.791Z,8.20
2017-10-24T01:37:22.972Z,8.10
2017-10-24T01:39:49.117Z,8.10
2017-10-24T01:42:15.193Z,8.10
2017-10-24T01:44:41.260Z,8.10
2017-10-24T01:47:08.092Z,8.10
2017-10-24T01:49:34.164Z,8.10
2017-10-24T01:52:00.231Z,8.10
2017-10-24T01:54:26.317Z,8.10
2017-10-24T01:56:53.107Z,8.20
2017-10-24T01:59:19.156Z,8.20
2017-10-24T02:01:45.299Z,8.10
2017-10-24T02:04:11.356Z,8.10
2017-10-24T02:06:37.426Z,8.20
2017-10-24T02:09:04.279Z,8.20
2017-10-24T02:11:31.102Z,8.00
2017-10-24T02:13:57.177Z,8.00
2017-10-24T02:16:24.022Z,8.00
2017-10-24T02:18:50.829Z,7.90
2017-10-24T02:21:16.892Z,7.90
2017-10-24T02:23:43.838Z,7.90
2017-10-24T02:26:09.925Z,7.90
2017-10-24T02:28:36.012Z,7.80
2017-10-24T02:31:02.126Z,7.80
2017-10-24T02:33:28.196Z,7.80
2017-10-24T02:35:54.279Z,7.80
2017-10-24T02:38:20.381Z,7.90
2017-10-24T02:40:46.504Z,8.00
2017-10-24T02:43:12.572Z,8.00
2017-10-24T02:45:39.395Z,7.90
2017-10-24T02:48:05.468Z,7.80
2017-10-24T02:50:32.283Z,7.90
2017-10-24T02:52:58.375Z,7.90
2017-10-24T02:55:24.524Z,7.90
2017-10-24T02:57:50.592Z,8.00
2017-10-24T03:00:16.704Z,7.90
2017-10-24T03:02:42.769Z,7.90
2017-10-24T03:05:08.846Z,7.90
2017-10-24T03:07:42.897Z,7.90
2017-10-24T03:10:08.971Z,7.90
2017-10-24T03:12:35.039Z,7.90
2017-10-24T03:15:01.857Z,7.90
2017-10-24T03:17:27.933Z,7.90
2017-10-24T03:19:54.768Z,7.90
2017-10-24T03:22:20.844Z,7.80
2017-10-24T03:24:46.989Z,7.90
2017-10-24T03:27:13.124Z,7.80
2017-10-24T03:29:39.213Z,7.70
2017-10-24T03:32:05.288Z,7.80
2017-10-24T03:34:31.419Z,7.80
2017-10-24T03:36:57.594Z,7.90
2017-10-24T03:39:23.683Z,8.00
2017-10-24T03:41:50.498Z,7.90
2017-10-24T03:44:16.596Z,7.90
2017-10-24T03:46:42.660Z,7.90
2017-10-24T03:49:08.772Z,7.90
2017-10-24T03:51:34.836Z,8.00
2017-10-24T03:54:00.914Z,8.00
2017-10-24T03:56:27.774Z,8.00
2017-10-24T03:58:54.580Z,8.10
2017-10-24T04:01:20.649Z,8.10
2017-10-24T04:03:46.793Z,8.20
2017-10-24T04:06:12.876Z,8.20
2017-10-24T04:08:38.977Z,8.20
2017-10-24T04:11:05.813Z,8.30
2017-10-24T04:13:31.897Z,8.30
2017-10-24T04:15:57.959Z,8.30
2017-10-24T04:18:24.060Z,8.30
2017-10-24T04:20:50.129Z,8.40
2017-10-24T04:23:16.279Z,8.40
2017-10-24T04:25:42.380Z,8.40
2017-10-24T04:28:08.465Z,8.40
2017-10-24T04:30:34.556Z,8.40
2017-10-24T04:33:00.654Z,8.40
2017-10-24T04:35:26.841Z,8.50
2017-10-24T04:37:52.908Z,8.50
2017-10-24T04:40:19.023Z,8.40
2017-10-24T04:42:45.091Z,8.50
2017-10-24T04:45:11.884Z,8.60
2017-10-24T04:47:38.711Z,8.60
2017-10-24T04:50:04.797Z,8.60
2017-10-24T04:52:30.855Z,8.60
2017-10-24T04:54:56.944Z,8.70
2017-10-24T04:57:23.749Z,8.70
2017-10-24T04:59:49.813Z,8.70
2017-10-24T05:02:16.001Z,8.70
2017-10-24T05:04:42.064Z,8.70
2017-10-24T05:07:08.136Z,8.70
2017-10-24T05:09:34.996Z,8.80
2017-10-24T05:12:01.805Z,8.80
2017-10-24T05:14:27.890Z,8.80
2017-10-24T05:16:54.720Z,8.80
2017-10-24T05:19:20.827Z,8.80
2017-10-24T05:21:46.904Z,8.90
2017-10-24T05:24:12.983Z,8.90
2017-10-24T05:26:39.048Z,9.00
2017-10-24T05:29:05.120Z,9.00
2017-10-24T05:31:31.225Z,9.00
2017-10-24T05:33:57.284Z,9.00
2017-10-24T05:36:23.350Z,9.00
2017-10-24T05:38:49.450Z,9.00
2017-10-24T05:41:15.544Z,9.00
2017-10-24T05:43:41.618Z,9.00
2017-10-24T05:46:07.699Z,9.00
2017-10-24T05:48:33.772Z,9.00
2017-10-24T05:50:59.828Z,9.10
2017-10-24T05:53:25.916Z,9.10
2017-10-24T05:55:51.988Z,9.00
2017-10-24T05:58:18.059Z,9.10
2017-10-24T06:00:44.204Z,9.10
2017-10-24T06:03:11.005Z,9.10
2017-10-24T06:05:37.151Z,9.00
2017-10-24T06:08:03.274Z,9.10
2017-10-24T06:10:29.337Z,9.10
2017-10-24T06:12:55.404Z,9.20
2017-10-24T06:15:21.516Z,9.30
2017-10-24T06:17:47.593Z,9.30
2017-10-24T06:20:14.399Z,9.50
2017-10-24T06:22:40.501Z,9.50
2017-10-24T06:25:06.552Z,9.50
2017-10-24T06:27:32.625Z,9.50
2017-10-24T06:29:58.720Z,9.50
2017-10-24T06:32:24.866Z,9.50
2017-10-24T06:34:50.934Z,9.50
2017-10-24T06:37:17.049Z,9.50
2017-10-24T06:39:43.121Z,9.40
2017-10-24T06:42:09.237Z,9.40
2017-10-24T06:44:35.364Z,9.40
2017-10-24T06:47:01.456Z,9.50
2017-10-24T06:49:28.274Z,9.50
2017-10-24T06:51:54.365Z,9.50
2017-10-24T06:54:20.471Z,9.60
2017-10-24T06:56:46.536Z,9.70
2017-10-24T06:59:12.635Z,9.70
2017-10-24T07:01:38.728Z,9.70
2017-10-24T07:04:04.877Z,9.70
2017-10-24T07:06:30.972Z,9.70
2017-10-24T07:08:57.793Z,9.70
2017-10-24T07:11:23.876Z,9.70
2017-10-24T07:13:50.009Z,9.80
2017-10-24T07:16:16.868Z,9.80
2017-10-24T07:18:42.937Z,9.80
2017-10-24T07:21:09.109Z,9.90
2017-10-24T07:23:35.196Z,9.90
2017-10-24T07:26:01.264Z,10.00
2017-10-24T07:28:27.362Z,10.10
2017-10-24T07:30:53.443Z,10.10
2017-10-24T07:33:19.506Z,10.10
2017-10-24T07:35:46.416Z,10.20
2017-10-24T07:38:12.527Z,10.20
2017-10-24T07:40:38.608Z,10.20
2017-10-24T07:43:04.745Z,10.20
2017-10-24T07:45:30.869Z,10.20
2017-10-24T07:47:56.953Z,10.20
2017-10-24T07:50:23.134Z,10.30
2017-10-24T07:52:49.234Z,10.40
2017-10-24T07:55:16.056Z,10.30
2017-10-24T07:57:42.146Z,10.30
2017-10-24T08:00:08.300Z,10.30
2017-10-24T08:02:34.385Z,10.40
2017-10-24T08:05:00.797Z,10.50
2017-10-24T08:07:26.868Z,10.40
2017-10-24T08:09:52.969Z,10.50
2017-10-24T08:12:19.244Z,10.60
2017-10-24T08:14:45.323Z,10.60
2017-10-24T08:17:11.401Z,10.40
2017-10-24T08:19:37.501Z,10.50
2017-10-24T08:22:03.625Z,10.60
2017-10-24T08:24:29.776Z,10.50
2017-10-24T08:26:55.931Z,10.60
2017-10-24T08:29:22.042Z,10.60
2017-10-24T08:31:48.182Z,10.70
2017-10-24T08:34:14.307Z,10.90
2017-10-24T08:36:41.198Z,11.00
2017-10-24T08:39:07.302Z,10.90
2017-10-24T08:41:33.415Z,10.90
2017-10-24T08:43:59.510Z,11.00
2017-10-24T08:46:25.610Z,11.00
2017-10-24T08:48:51.699Z,11.00
2017-10-24T08:51:17.808Z,11.10
2017-10-24T08:53:43.972Z,11.20
2017-10-24T08:56:10.084Z,11.30
2017-10-24T08:58:36.519Z,11.30
2017-10-24T09:01:02.834Z,11.30
2017-10-24T09:03:29.032Z,11.40
2017-10-24T09:08:58.258Z,11.60
2017-10-24T09:11:52.585Z,11.60
2017-10-24T09:14:20.114Z,11.60
2017-10-24T09:16:48.290Z,11.70
2017-10-24T09:19:27.033Z,11.80
2017-10-24T09:21:53.203Z,11.80
2017-10-24T09:24:19.396Z,11.90
2017-10-24T09:26:45.667Z,12.10
2017-10-24T09:29:11.790Z,12.10
2017-10-24T09:31:38.688Z,12.30
2017-10-24T09:34:04.854Z,12.30
2017-10-24T09:36:31.813Z,12.40
2017-10-24T09:38:57.929Z,12.50
2017-10-24T09:41:25.013Z,12.80
2017-10-24T09:43:51.124Z,12.90
2017-10-24T09:46:23.624Z,13.00
2017-10-24T09:48:49.743Z,13.20
2017-10-24T09:51:28.113Z,13.20
2017-10-24T09:53:54.988Z,13.20
2017-10-24T09:56:34.443Z,13.50
2017-10-24T09:59:00.717Z,13.50
2017-10-24T10:01:49.577Z,13.70
2017-10-24T10:04:15.764Z,13.70
2017-10-24T10:06:54.285Z,13.80
2017-10-24T10:09:20.509Z,13.80
2017-10-24T10:11:46.649Z,13.80
2017-10-24T10:14:12.887Z,13.60
2017-10-24T10:16:39.100Z,13.30
2017-10-24T10:19:05.317Z,13.30
2017-10-24T10:21:32.210Z,13.20
2017-10-24T10:23:58.344Z,13.20
2017-10-24T10:26:24.618Z,13.30
2017-10-24T10:28:50.819Z,13.20
2017-10-24T10:31:17.057Z,13.20
2017-10-24T10:33:43.421Z,13.00
2017-10-24T10:36:09.589Z,13.10
2017-10-24T10:38:35.772Z,12.90
2017-10-24T10:41:01.947Z,12.90
2017-10-24T10:43:28.050Z,13.00
2017-10-24T10:45:54.241Z,13.10
2017-10-24T10:48:20.427Z,12.90
2017-10-24T10:50:46.823Z,12.90
2017-10-24T10:53:12.912Z,12.80
2017-10-24T10:55:39.020Z,13.00
2017-10-24T10:58:05.879Z,13.40
2017-10-24T11:00:32.795Z,13.30
2017-10-24T11:02:59.652Z,13.20
2017-10-24T11:05:25.742Z,13.20
2017-10-24T11:07:51.847Z,13.30
2017-10-24T11:10:17.926Z,13.30
2017-10-24T11:12:44.066Z,13.20
2017-10-24T11:15:10.144Z,13.30
2017-10-24T11:17:37.097Z,13.20
2017-10-24T11:20:03.260Z,12.90
2017-10-24T11:22:30.133Z,12.80
2017-10-24T11:24:57.021Z,12.90
2017-10-24T11:27:23.160Z,12.90
2017-10-24T11:29:49.350Z,13.10
2017-10-24T11:32:15.436Z,13.40
2017-10-24T11:34:41.532Z,13.80
2017-10-24T11:37:08.424Z,14.00
2017-10-24T11:39:34.581Z,14.00
2017-10-24T11:42:01.529Z,14.00
2017-10-24T11:44:27.623Z,14.00
2017-10-24T11:46:55.053Z,14.00
2017-10-24T11:49:21.805Z,14.10
2017-10-24T11:51:47.918Z,14.00
2017-10-24T11:54:14.076Z,14.00
2017-10-24T11:56:40.343Z,13.70
2017-10-24T11:59:06.412Z,13.90
2017-10-24T12:01:33.228Z,14.00
2017-10-24T12:03:59.326Z,14.00
2017-10-24T12:06:25.465Z,14.10
2017-10-24T12:08:51.558Z,14.00
2017-10-24T12:11:17.668Z,13.80
2017-10-24T12:13:44.374Z,14.00
2017-10-24T12:16:11.113Z,14.20
2017-10-24T12:18:37.253Z,14.70
2017-10-24T12:21:03.412Z,15.40
2017-10-24T12:23:29.627Z,16.60
2017-10-24T12:25:56.467Z,16.50
2017-10-24T12:28:22.531Z,16.50
2017-10-24T12:30:49.383Z,15.50
2017-10-24T12:33:16.487Z,15.10
2017-10-24T12:35:42.616Z,15.00
2017-10-24T12:38:08.700Z,15.00
2017-10-24T12:40:34.928Z,14.80
2017-10-24T12:43:01.024Z,15.20
2017-10-24T12:45:28.084Z,15.20
2017-10-24T12:47:54.165Z,15.70
2017-10-24T12:50:21.204Z,16.60
2017-10-24T12:52:47.307Z,16.60
2017-10-24T12:55:13.437Z,16.70
2017-10-24T12:57:41.520Z,16.30
2017-10-24T13:00:08.356Z,15.70
2017-10-24T13:02:35.252Z,15.40
2017-10-24T13:05:01.402Z,15.30
2017-10-24T13:07:27.503Z,15.20
2017-10-24T13:09:54.324Z,15.10
2017-10-24T13:12:20.428Z,15.10
2017-10-24T13:14:46.516Z,15.00
2017-10-24T13:17:12.606Z,15.10
2017-10-24T13:19:38.725Z,15.20
2017-10-24T13:22:04.890Z,15.60
2017-10-24T13:24:30.972Z,15.60
2017-10-24T13:26:57.088Z,15.40
2017-10-24T13:29:23.159Z,15.20
2017-10-24T13:31:50.031Z,15.30
2017-10-24T13:34:16.117Z,15.30
2017-10-24T13:36:42.297Z,15.40
2017-10-24T13:39:08.365Z,15.50
2017-10-24T13:41:34.522Z,15.40
2017-10-24T13:44:00.603Z,15.30
2017-10-24T13:46:26.692Z,15.20
2017-10-24T13:48:52.773Z,15.30
2017-10-24T13:51:19.569Z,15.40
2017-10-24T13:53:45.646Z,15.40
2017-10-24T13:56:11.840Z,15.40
2017-10-24T13:58:37.926Z,15.30
2017-10-24T14:01:04.005Z,15.30
2017-10-24T14:03:30.109Z,15.10
2017-10-24T14:06:03.220Z,15.30
2017-10-24T14:11:36.857Z,15.10
2017-10-24T14:14:03.707Z,15.00
2017-10-24T14:16:30.535Z,14.90
2017-10-24T14:18:56.597Z,14.90
2017-10-24T14:21:23.432Z,14.90
2017-10-24T14:23:49.576Z,14.80
2017-10-24T14:26:16.437Z,14.80
2017-10-24T14:28:42.641Z,14.80
2017-10-24T14:31:08.784Z,14.80
2017-10-24T14:33:34.908Z,14.70
2017-10-24T14:36:01.097Z,14.60
2017-10-24T14:38:27.941Z,14.40
2017-10-24T14:40:54.034Z,14.40
2017-10-24T14:43:20.160Z,14.50
2017-10-24T14:45:46.224Z,14.40
2017-10-24T14:48:12.288Z,14.40
2017-10-24T14:50:38.386Z,14.40
2017-10-24T14:53:04.456Z,14.40
2017-10-24T14:55:30.546Z,14.40
2017-10-24T14:57:56.640Z,14.30
2017-10-24T15:00:22.709Z,14.20
2017-10-24T15:02:49.531Z,14.20
2017-10-24T15:05:15.638Z,14.10
2017-10-24T15:07:41.707Z,14.10
2017-10-24T15:10:07.911Z,14.10
2017-10-24T15:12:34.030Z,14.00
2017-10-24T15:15:00.114Z,14.00
2017-10-24T15:17:26.211Z,13.90
2017-10-24T15:19:52.321Z,13.90
2017-10-24T15:22:19.197Z,13.90
2017-10-24T15:24:45.279Z,13.80
2017-10-24T15:27:11.410Z,13.80
2017-10-24T15:29:37.667Z,13.80
2017-10-24T15:32:03.746Z,13.70
2017-10-24T15:34:30.383Z,13.70
2017-10-24T15:36:56.501Z,13.60
2017-10-24T15:39:22.580Z,13.60
2017-10-24T15:41:48.687Z,13.60
2017-10-24T15:44:15.517Z,13.60
2017-10-24T15:46:41.608Z,13.60
2017-10-24T15:49:07.753Z,13.60
2017-10-24T15:51:33.883Z,13.60
2017-10-24T15:54:00.025Z,13.60
2017-10-24T15:56:26.113Z,13.60
2017-10-24T15:58:52.244Z,13.50
2017-10-24T16:01:18.332Z,13.60
2017-10-24T16:03:45.456Z,13.50
2017-10-24T16:06:11.647Z,13.60
2017-10-24T16:08:37.748Z,13.60
2017-10-24T16:11:04.655Z,13.50
2017-10-24T16:13:32.809Z,13.50
2017-10-24T16:15:58.947Z,13.60
2017-10-24T16:18:25.130Z,13.60
2017-10-24T16:20:51.191Z,13.50
2017-10-24T16:23:17.263Z,13.60
2017-10-24T16:25:43.379Z,13.60
2017-10-24T16:28:10.504Z,13.50
2017-10-24T16:30:36.613Z,13.50
2017-10-24T16:33:02.739Z,13.50
2017-10-24T16:35:28.818Z,13.50
2017-10-24T16:37:54.944Z,13.50
2017-10-24T16:40:22.531Z,13.50
2017-10-24T16:42:48.617Z,13.50
2017-10-24T16:45:14.731Z,13.50
2017-10-24T16:47:41.708Z,13.40
2017-10-24T16:50:07.846Z,13.50
2017-10-24T16:52:34.672Z,13.50
2017-10-24T16:55:00.855Z,13.40
2017-10-24T16:57:26.933Z,13.40
2017-10-24T16:59:53.205Z,13.40
2017-10-24T17:02:19.402Z,13.40
2017-10-24T17:04:45.501Z,13.50
2017-10-24T17:07:11.616Z,13.50
2017-10-24T17:09:38.506Z,13.50
2017-10-24T17:12:04.621Z,13.50
2017-10-24T17:14:30.732Z,13.50
2017-10-24T17:16:56.824Z,13.50
2017-10-24T17:19:22.967Z,13.50
2017-10-24T17:21:49.098Z,13.40
2017-10-24T17:24:15.245Z,13.50
2017-10-24T17:26:41.305Z,13.50
2017-10-24T17:29:07.440Z,13.40
2017-10-24T17:31:33.597Z,13.40
2017-10-24T17:34:00.478Z,13.30
2017-10-24T17:36:26.565Z,13.20
2017-10-24T17:38:52.677Z,13.30
2017-10-24T17:41:18.744Z,13.30
2017-10-24T17:43:44.911Z,13.30
2017-10-24T17:46:11.094Z,13.30
2017-10-24T17:48:37.217Z,13.30
2017-10-24T17:51:03.504Z,13.20
2017-10-24T17:53:29.592Z,13.20
2017-10-24T17:55:56.457Z,13.10
2017-10-24T17:58:22.648Z,13.10
2017-10-24T18:00:48.745Z,13.10
2017-10-24T18:03:14.864Z,13.10
2017-10-24T18:05:40.972Z,13.00
2017-10-24T18:08:07.157Z,13.00
2017-10-24T18:10:33.390Z,13.00
2017-10-24T18:12:59.530Z,13.00
2017-10-24T18:15:25.632Z,12.90
2017-10-24T18:17:51.728Z,13.00
2017-10-24T18:20:17.885Z,13.00
2017-10-24T18:22:43.982Z,13.00
2017-10-24T18:25:10.089Z,13.00
2017-10-24T18:27:37.230Z,13.00
2017-10-24T18:30:03.546Z,13.00
2017-10-24T18:32:29.657Z,13.00
2017-10-24T18:34:55.748Z,13.00
2017-10-24T18:37:21.830Z,13.00
2017-10-24T18:39:47.914Z,13.10
2017-10-24T18:42:14.132Z,13.10
2017-10-24T18:44:40.696Z,13.00
2017-10-24T18:47:07.557Z,13.10
2017-10-24T18:49:33.945Z,13.00
2017-10-24T18:52:00.111Z,13.10
2017-10-24T18:54:26.191Z,13.10
2017-10-24T18:56:52.323Z,13.10
2017-10-24T18:59:18.429Z,13.10
2017-10-24T19:01:44.527Z,13.10
2017-10-24T19:04:11.385Z,13.20
2017-10-24T19:06:38.216Z,13.20
2017-10-24T19:09:04.320Z,13.20
2017-10-24T19:11:30.450Z,13.20
2017-10-24T19:13:56.588Z,13.20
2017-10-24T19:16:22.716Z,13.20
2017-10-24T19:18:48.837Z,13.30
2017-10-24T19:21:15.665Z,13.20
2017-10-24T19:23:41.781Z,13.20
2017-10-24T19:26:07.946Z,13.30
2017-10-24T19:28:34.198Z,13.20
2017-10-24T19:31:00.339Z,13.30
2017-10-24T19:33:26.525Z,13.30
2017-10-24T19:35:52.613Z,13.30
2017-10-24T19:38:19.436Z,13.30
2017-10-24T19:40:45.568Z,13.30
2017-10-24T19:43:11.691Z,13.30
2017-10-24T19:45:37.800Z,13.30
2017-10-24T19:48:03.944Z,13.30
2017-10-24T19:50:30.065Z,13.30
2017-10-24T19:52:56.141Z,13.30
2017-10-24T19:55:22.369Z,13.30
2017-10-24T19:57:49.304Z,13.30
2017-10-24T20:00:15.385Z,13.30
2017-10-24T20:02:41.536Z,13.30
2017-10-24T20:05:07.654Z,13.40
2017-10-24T20:07:33.799Z,13.30
2017-10-24T20:09:59.925Z,13.30
2017-10-24T20:12:26.169Z,13.40
2017-10-24T20:14:52.236Z,13.40
2017-10-24T20:17:18.364Z,13.40
2017-10-24T20:19:44.478Z,13.40
2017-10-24T20:22:10.621Z,13.40
2017-10-24T20:24:36.768Z,13.40
2017-10-24T20:27:02.967Z,13.50
2017-10-24T20:29:29.130Z,13.40
2017-10-24T20:31:55.258Z,13.40
2017-10-24T20:34:21.338Z,13.40
2017-10-24T20:36:47.408Z,13.40
2017-10-24T20:39:14.250Z,13.40
2017-10-24T20:41:41.376Z,13.50
2017-10-24T20:44:07.553Z,13.50
2017-10-24T20:46:34.441Z,13.30
2017-10-24T20:49:00.529Z,13.20
2017-10-24T20:51:26.641Z,13.20
2017-10-24T20:53:52.960Z,13.10
2017-10-24T20:56:19.053Z,13.10
2017-10-24T20:58:45.156Z,13.10
2017-10-24T21:01:11.270Z,13.00
2017-10-24T21:03:37.401Z,13.00
2017-10-24T21:06:03.593Z,13.00
2017-10-24T21:08:29.704Z,13.00
2017-10-24T21:10:56.256Z,13.00
2017-10-24T21:13:22.506Z,12.90
2017-10-24T21:15:48.743Z,12.90
2017-10-24T21:18:14.976Z,12.90
2017-10-24T21:20:41.193Z,12.90
2017-10-24T21:23:07.555Z,12.90
2017-10-24T21:25:33.775Z,12.90
2017-10-24T21:28:00.066Z,13.00
2017-10-24T21:30:26.322Z,13.00
2017-10-24T21:32:52.528Z,13.00
2017-10-24T21:35:18.751Z,13.00
2017-10-24T21:37:44.874Z,13.00
2017-10-24T21:40:11.027Z,13.00
2017-10-24T21:42:37.096Z,13.00
2017-10-24T21:45:03.301Z,13.00
2017-10-24T21:47:29.401Z,13.00
2017-10-24T21:49:56.242Z,13.00
2017-10-24T21:52:22.334Z,13.00
2017-10-24T21:54:48.505Z,13.00
2017-10-24T21:57:14.572Z,13.10
2017-10-24T21:59:41.409Z,13.10
2017-10-24T22:02:07.504Z,13.10
2017-10-24T22:04:33.670Z,13.10
2017-10-24T22:06:59.880Z,13.00
2017-10-24T22:09:25.975Z,13.10
2017-10-24T22:11:52.093Z,13.10
2017-10-24T22:14:18.202Z,13.00
2017-10-24T22:16:44.273Z,13.00
2017-10-24T22:19:10.373Z,13.00
2017-10-24T22:21:43.563Z,13.00
2017-10-24T22:24:09.717Z,13.00
2017-10-24T22:26:35.817Z,13.00
2017-10-24T22:29:02.797Z,12.90
2017-10-24T22:31:28.933Z,12.90
2017-10-24T22:33:55.065Z,12.80
2017-10-24T22:36:21.205Z,12.80
2017-10-24T22:38:47.356Z,12.80
2017-10-24T22:41:13.494Z,12.70
2017-10-24T22:43:39.621Z,12.70
2017-10-24T22:46:05.820Z,12.60
2017-10-24T22:48:32.794Z,12.40
2017-10-24T22:50:59.024Z,12.40
2017-10-24T22:53:25.231Z,12.40
2017-10-24T22:55:51.380Z,12.40
2017-10-24T22:58:17.597Z,12.50
2017-10-24T23:00:44.875Z,12.50
2017-10-24T23:03:10.955Z,12.50
2017-10-24T23:05:37.202Z,12.60
2017-10-24T23:08:04.263Z,12.60
2017-10-24T23:10:30.444Z,12.50
2017-10-24T23:12:56.596Z,12.60
2017-10-24T23:15:22.675Z,12.60
2017-10-24T23:17:49.501Z,12.60
2017-10-24T23:20:15.609Z,12.60
2017-10-24T23:22:42.460Z,12.60
2017-10-24T23:25:08.809Z,12.60
2017-10-24T23:27:34.986Z,12.60
2017-10-24T23:30:01.117Z,12.60
2017-10-24T23:32:27.252Z,12.60
2017-10-24T23:34:53.358Z,12.50
2017-10-24T23:37:19.495Z,12.50
2017-10-24T23:39:45.573Z,12.50
2017-10-24T23:42:11.718Z,12.50
2017-10-24T23:44:37.801Z,12.50
2017-10-24T23:47:03.972Z,12.50
2017-10-24T23:49:30.077Z,12.50
2017-10-24T23:51:56.202Z,12.50
2017-10-24T23:54:22.390Z,12.50
2017-10-24T23:56:48.504Z,12.50
2017-10-24T23:59:14.609Z,12.50
